createdAt,value
2022-08-20T00:00:40.406Z,21.19
2022-08-20T00:01:40.487Z,21.17
2022-08-20T00:02:40.524Z,21.17
2022-08-20T00:03:40.573Z,21.17
2022-08-20T00:04:40.609Z,21.19
2022-08-20T00:05:40.662Z,21.17
2022-08-20T00:06:40.701Z,21.15
2022-08-20T00:07:40.761Z,21.15
2022-08-20T00:08:40.801Z,21.15
2022-08-20T00:09:40.821Z,21.15
2022-08-20T00:10:40.871Z,21.13
2022-08-20T00:11:40.891Z,21.14
2022-08-20T00:12:40.914Z,21.15
2022-08-20T00:13:40.924Z,21.17
2022-08-20T00:14:40.923Z,21.15
2022-08-20T00:15:40.925Z,21.17
2022-08-20T00:16:40.914Z,21.19
2022-08-20T00:17:40.935Z,21.17
2022-08-20T00:18:40.965Z,21.17
2022-08-20T00:19:41.025Z,21.17
2022-08-20T00:20:41.077Z,21.20
2022-08-20T00:21:41.125Z,21.19
2022-08-20T00:22:41.205Z,21.17
2022-08-20T00:23:41.227Z,21.22
2022-08-20T00:24:41.248Z,21.20
2022-08-20T00:25:41.287Z,21.20
2022-08-20T00:26:51.900Z,21.20
2022-08-20T00:27:41.368Z,21.22
2022-08-20T00:28:41.435Z,21.22
2022-08-20T00:29:41.479Z,21.25
2022-08-20T00:30:41.529Z,21.26
2022-08-20T00:31:41.590Z,21.29
2022-08-20T00:32:41.639Z,21.29
2022-08-20T00:33:41.710Z,21.32
2022-08-20T00:34:41.721Z,21.35
2022-08-20T00:35:41.779Z,21.37
2022-08-20T00:36:41.782Z,21.40
2022-08-20T00:37:41.832Z,21.43
2022-08-20T00:38:41.863Z,21.44
2022-08-20T00:39:41.910Z,21.45
2022-08-20T00:40:41.874Z,21.47
2022-08-20T00:41:41.925Z,21.47
2022-08-20T00:42:41.974Z,21.48
2022-08-20T00:43:42.022Z,21.48
2022-08-20T00:44:42.074Z,21.47
2022-08-20T00:45:42.145Z,21.48
2022-08-20T00:46:42.193Z,21.48
2022-08-20T00:47:42.246Z,21.45
2022-08-20T00:48:42.296Z,21.45
2022-08-20T00:49:42.300Z,21.44
2022-08-20T00:50:42.346Z,21.41
2022-08-20T00:51:42.367Z,21.38
2022-08-20T00:52:42.390Z,21.37
2022-08-20T00:53:42.423Z,21.35
2022-08-20T00:54:42.478Z,21.33
2022-08-20T00:55:42.527Z,21.30
2022-08-20T00:56:42.580Z,21.28
2022-08-20T00:58:00.724Z,21.26
2022-08-20T00:58:42.666Z,21.23
2022-08-20T00:59:42.730Z,21.22
2022-08-20T01:00:42.780Z,21.20
2022-08-20T01:01:56.261Z,21.17
2022-08-20T01:02:42.871Z,21.17
2022-08-20T01:03:42.921Z,21.15
2022-08-20T01:04:42.984Z,21.14
2022-08-20T01:05:43.029Z,21.13
2022-08-20T01:06:43.062Z,21.14
2022-08-20T01:07:43.103Z,21.13
2022-08-20T01:08:43.146Z,21.11
2022-08-20T01:09:57.846Z,21.13
2022-08-20T01:10:43.224Z,21.10
2022-08-20T01:11:43.254Z,21.10
2022-08-20T01:12:43.293Z,21.10
2022-08-20T01:13:43.315Z,21.11
2022-08-20T01:14:43.375Z,21.11
2022-08-20T01:15:43.671Z,21.10
2022-08-20T01:16:43.441Z,21.11
2022-08-20T01:17:43.465Z,21.11
2022-08-20T01:18:43.524Z,21.10
2022-08-20T01:19:43.578Z,21.10
2022-08-20T01:20:43.609Z,21.08
2022-08-20T01:23:09.637Z,21.07
2022-08-20T01:24:09.687Z,21.07
2022-08-20T01:25:09.736Z,21.07
2022-08-20T01:26:09.782Z,21.05
2022-08-20T01:27:09.810Z,21.07
2022-08-20T01:28:09.871Z,21.07
2022-08-20T01:29:09.910Z,21.04
2022-08-20T01:30:09.936Z,21.05
2022-08-20T01:31:09.978Z,21.05
2022-08-20T01:32:10.024Z,21.05
2022-08-20T01:33:10.019Z,21.03
2022-08-20T01:34:10.092Z,21.01
2022-08-20T01:35:10.120Z,21.01
2022-08-20T01:36:10.160Z,21.00
2022-08-20T01:37:10.173Z,20.98
2022-08-20T01:38:10.221Z,20.98
2022-08-20T01:39:10.270Z,20.96
2022-08-20T01:40:10.338Z,20.98
2022-08-20T01:41:10.306Z,20.95
2022-08-20T01:42:10.342Z,20.93
2022-08-20T01:43:10.343Z,20.92
2022-08-20T01:44:13.418Z,20.92
2022-08-20T01:45:10.423Z,20.92
2022-08-20T01:46:10.452Z,20.90
2022-08-20T01:47:10.464Z,20.89
2022-08-20T01:48:10.514Z,20.89
2022-08-20T01:49:13.497Z,20.89
2022-08-20T01:50:10.585Z,20.88
2022-08-20T01:51:10.616Z,20.88
2022-08-20T01:52:10.662Z,20.85
2022-08-20T01:53:10.697Z,20.86
2022-08-20T01:54:10.737Z,20.86
2022-08-20T01:55:10.783Z,20.86
2022-08-20T01:56:10.818Z,20.85
2022-08-20T01:57:10.848Z,20.85
2022-08-20T01:58:10.904Z,20.83
2022-08-20T01:59:10.938Z,20.83
2022-08-20T02:00:11.106Z,20.86
2022-08-20T02:01:11.059Z,20.85
2022-08-20T02:02:11.031Z,20.85
2022-08-20T02:03:11.070Z,20.86
2022-08-20T02:04:15.178Z,20.86
2022-08-20T02:05:11.152Z,20.85
2022-08-20T02:06:11.182Z,20.85
2022-08-20T02:07:11.222Z,20.83
2022-08-20T02:08:11.262Z,20.83
2022-08-20T02:09:15.956Z,20.82
2022-08-20T02:10:11.334Z,20.83
2022-08-20T02:11:11.365Z,20.83
2022-08-20T02:12:11.402Z,20.82
2022-08-20T02:13:11.435Z,20.82
2022-08-20T02:14:11.479Z,20.80
2022-08-20T02:15:11.515Z,20.80
2022-08-20T02:16:11.570Z,20.80
2022-08-20T02:17:11.639Z,20.78
2022-08-20T02:18:11.684Z,20.80
2022-08-20T02:19:11.734Z,20.78
2022-08-20T02:20:11.768Z,20.78
2022-08-20T02:21:11.818Z,20.77
2022-08-20T02:22:11.874Z,20.78
2022-08-20T02:23:11.930Z,20.75
2022-08-20T02:24:11.968Z,20.78
2022-08-20T02:25:12.008Z,20.78
2022-08-20T02:26:12.052Z,20.77
2022-08-20T02:27:12.089Z,20.77
2022-08-20T02:28:12.165Z,20.77
2022-08-20T02:29:12.201Z,20.78
2022-08-20T02:30:12.240Z,20.75
2022-08-20T02:31:12.262Z,20.77
2022-08-20T02:32:31.145Z,20.75
2022-08-20T02:33:12.347Z,20.75
2022-08-20T02:34:18.519Z,20.75
2022-08-20T02:35:12.423Z,20.77
2022-08-20T02:36:12.464Z,20.77
2022-08-20T02:37:12.514Z,20.75
2022-08-20T02:38:12.544Z,20.77
2022-08-20T02:39:12.595Z,20.75
2022-08-20T02:40:12.676Z,20.73
2022-08-20T02:41:12.624Z,20.74
2022-08-20T02:42:12.658Z,20.70
2022-08-20T02:43:12.698Z,20.71
2022-08-20T02:44:12.766Z,20.68
2022-08-20T02:45:16.577Z,20.66
2022-08-20T02:46:12.859Z,20.63
2022-08-20T02:47:12.898Z,20.59
2022-08-20T02:48:12.927Z,20.60
2022-08-20T02:49:12.958Z,20.55
2022-08-20T02:50:12.999Z,20.53
2022-08-20T02:51:13.042Z,20.50
2022-08-20T02:52:13.079Z,20.49
2022-08-20T02:53:13.110Z,20.46
2022-08-20T02:54:13.160Z,20.46
2022-08-20T02:55:25.931Z,20.42
2022-08-20T02:56:13.250Z,20.44
2022-08-20T02:57:13.284Z,20.42
2022-08-20T02:58:13.321Z,20.40
2022-08-20T02:59:19.585Z,20.40
2022-08-20T03:00:13.402Z,20.39
2022-08-20T03:01:13.478Z,20.39
2022-08-20T03:02:13.523Z,20.39
2022-08-20T03:03:13.571Z,20.37
2022-08-20T03:04:13.615Z,20.37
2022-08-20T03:05:13.664Z,20.37
2022-08-20T03:06:13.704Z,20.37
2022-08-20T03:07:13.766Z,20.40
2022-08-20T03:08:13.815Z,20.42
2022-08-20T03:09:13.856Z,20.42
2022-08-20T03:10:13.906Z,20.42
2022-08-20T03:11:13.945Z,20.42
2022-08-20T03:12:13.986Z,20.42
2022-08-20T03:13:14.049Z,20.44
2022-08-20T03:14:14.086Z,20.44
2022-08-20T03:15:17.405Z,20.44
2022-08-20T03:16:14.138Z,20.44
2022-08-20T03:17:14.197Z,20.42
2022-08-20T03:18:14.294Z,20.42
2022-08-20T03:19:14.239Z,20.42
2022-08-20T03:20:14.300Z,20.40
2022-08-20T03:21:14.846Z,20.40
2022-08-20T03:22:14.360Z,20.42
2022-08-20T03:23:14.421Z,20.44
2022-08-20T03:24:14.451Z,20.42
2022-08-20T03:25:14.499Z,20.42
2022-08-20T03:26:14.543Z,20.42
2022-08-20T03:27:14.589Z,20.40
2022-08-20T03:28:14.650Z,20.39
2022-08-20T03:29:14.692Z,20.34
2022-08-20T03:30:14.694Z,20.34
2022-08-20T03:31:14.854Z,20.34
2022-08-20T03:32:14.784Z,20.33
2022-08-20T03:33:14.834Z,20.33
2022-08-20T03:34:14.894Z,20.34
2022-08-20T03:35:14.945Z,20.32
2022-08-20T03:36:14.965Z,20.32
2022-08-20T03:37:15.012Z,20.32
2022-08-20T03:38:15.044Z,20.32
2022-08-20T03:39:15.117Z,20.32
2022-08-20T03:40:15.098Z,20.33
2022-08-20T03:41:15.139Z,20.30
2022-08-20T03:42:15.188Z,20.32
2022-08-20T03:43:15.236Z,20.32
2022-08-20T03:44:15.276Z,20.32
2022-08-20T03:45:20.221Z,20.32
2022-08-20T03:46:21.984Z,20.33
2022-08-20T03:47:15.400Z,20.33
2022-08-20T03:48:15.375Z,20.32
2022-08-20T03:49:15.402Z,20.32
2022-08-20T03:50:23.668Z,20.32
2022-08-20T03:51:15.481Z,20.32
2022-08-20T03:52:15.491Z,20.29
2022-08-20T03:53:15.566Z,20.29
2022-08-20T03:54:15.602Z,20.29
2022-08-20T03:55:15.662Z,20.29
2022-08-20T03:56:15.673Z,20.27
2022-08-20T03:57:15.724Z,20.27
2022-08-20T03:58:15.734Z,20.29
2022-08-20T03:59:15.766Z,20.27
2022-08-20T04:00:15.824Z,20.24
2022-08-20T04:01:45.999Z,20.26
2022-08-20T04:02:15.971Z,20.26
2022-08-20T04:03:15.896Z,20.26
2022-08-20T04:04:15.906Z,20.26
2022-08-20T04:05:15.947Z,20.26
2022-08-20T04:06:15.936Z,20.26
2022-08-20T04:07:15.928Z,20.27
2022-08-20T04:08:15.923Z,20.26
2022-08-20T04:09:15.908Z,20.27
2022-08-20T04:10:15.908Z,20.27
2022-08-20T04:11:15.917Z,20.29
2022-08-20T04:12:15.968Z,20.27
2022-08-20T04:13:15.971Z,20.26
2022-08-20T04:14:18.544Z,20.24
2022-08-20T04:15:16.040Z,20.22
2022-08-20T04:16:16.138Z,20.19
2022-08-20T04:17:16.058Z,20.21
2022-08-20T04:18:16.071Z,20.17
2022-08-20T04:19:16.071Z,20.17
2022-08-20T04:20:16.092Z,20.15
2022-08-20T04:21:16.083Z,20.17
2022-08-20T04:22:16.072Z,20.17
2022-08-20T04:23:16.093Z,20.18
2022-08-20T04:24:22.600Z,20.18
2022-08-20T04:25:16.144Z,20.19
2022-08-20T04:26:16.147Z,20.18
2022-08-20T04:27:16.166Z,20.15
2022-08-20T04:28:16.165Z,20.14
2022-08-20T04:29:16.159Z,20.14
2022-08-20T04:30:16.146Z,20.12
2022-08-20T04:31:16.134Z,20.10
2022-08-20T04:32:17.902Z,20.11
2022-08-20T04:33:16.128Z,20.11
2022-08-20T04:34:16.146Z,20.10
2022-08-20T04:35:16.128Z,20.04
2022-08-20T04:36:16.188Z,20.03
2022-08-20T04:37:16.541Z,20.03
2022-08-20T04:38:16.249Z,20.02
2022-08-20T04:39:16.339Z,20.00
2022-08-20T04:40:16.381Z,20.00
2022-08-20T04:41:22.775Z,19.99
2022-08-20T04:42:16.461Z,19.97
2022-08-20T04:43:16.491Z,19.97
2022-08-20T04:44:16.532Z,19.96
2022-08-20T04:45:16.553Z,19.94
2022-08-20T04:46:16.533Z,19.90
2022-08-20T04:47:16.553Z,19.89
2022-08-20T04:48:16.601Z,19.87
2022-08-20T04:49:16.663Z,19.85
2022-08-20T04:50:16.734Z,19.85
2022-08-20T04:51:16.708Z,19.87
2022-08-20T04:52:16.745Z,19.85
2022-08-20T04:53:16.802Z,19.85
2022-08-20T04:54:16.886Z,19.85
2022-08-20T04:55:16.859Z,19.84
2022-08-20T04:56:16.916Z,19.85
2022-08-20T04:57:16.984Z,19.84
2022-08-20T04:58:17.045Z,19.81
2022-08-20T04:59:17.076Z,19.78
2022-08-20T05:00:17.077Z,19.77
2022-08-20T05:01:17.107Z,19.79
2022-08-20T05:02:17.137Z,19.78
2022-08-20T05:03:17.158Z,19.78
2022-08-20T05:04:17.236Z,19.77
2022-08-20T05:05:17.230Z,19.75
2022-08-20T05:06:17.229Z,19.74
2022-08-20T05:07:17.259Z,19.71
2022-08-20T05:08:19.992Z,19.67
2022-08-20T05:09:17.290Z,19.67
2022-08-20T05:10:17.312Z,19.63
2022-08-20T05:11:33.110Z,19.60
2022-08-20T05:12:17.304Z,19.63
2022-08-20T05:13:17.371Z,19.59
2022-08-20T05:14:17.393Z,19.57
2022-08-20T05:15:17.412Z,19.53
2022-08-20T05:16:17.432Z,19.52
2022-08-20T05:17:17.460Z,19.49
2022-08-20T05:18:17.464Z,19.48
2022-08-20T05:19:17.473Z,19.44
2022-08-20T05:20:17.465Z,19.44
2022-08-20T05:21:17.494Z,19.41
2022-08-20T05:22:17.496Z,19.41
2022-08-20T05:23:17.517Z,19.44
2022-08-20T05:24:17.545Z,19.44
2022-08-20T05:25:17.565Z,19.45
2022-08-20T05:26:17.565Z,19.49
2022-08-20T05:27:24.651Z,19.49
2022-08-20T05:28:17.647Z,19.52
2022-08-20T05:29:17.712Z,19.49
2022-08-20T05:30:17.739Z,19.45
2022-08-20T05:31:17.729Z,19.41
2022-08-20T05:32:17.759Z,19.42
2022-08-20T05:33:17.814Z,19.44
2022-08-20T05:34:17.829Z,19.47
2022-08-20T05:35:17.880Z,19.49
2022-08-20T05:36:17.919Z,19.53
2022-08-20T05:37:17.950Z,19.57
2022-08-20T05:38:17.952Z,19.60
2022-08-20T05:39:17.990Z,19.62
2022-08-20T05:40:18.170Z,19.62
2022-08-20T05:41:28.436Z,19.64
2022-08-20T05:42:18.124Z,19.66
2022-08-20T05:43:18.107Z,19.66
2022-08-20T05:44:18.162Z,19.70
2022-08-20T05:45:18.177Z,19.70
2022-08-20T05:46:18.183Z,19.75
2022-08-20T05:47:18.237Z,19.79
2022-08-20T05:48:18.245Z,19.79
2022-08-20T05:49:18.243Z,19.78
2022-08-20T05:50:20.653Z,19.81
2022-08-20T05:51:18.286Z,19.85
2022-08-20T05:52:18.286Z,19.89
2022-08-20T05:53:18.290Z,19.90
2022-08-20T05:54:18.266Z,19.94
2022-08-20T05:55:18.276Z,19.94
2022-08-20T05:56:18.338Z,19.93
2022-08-20T05:57:18.347Z,19.92
2022-08-20T05:58:18.378Z,19.96
2022-08-20T05:59:22.265Z,19.96
2022-08-20T06:00:18.428Z,19.93
2022-08-20T06:01:18.493Z,19.96
2022-08-20T06:02:18.443Z,19.93
2022-08-20T06:03:18.510Z,19.89
2022-08-20T06:04:18.540Z,19.82
2022-08-20T06:05:18.521Z,19.84
2022-08-20T06:06:44.995Z,19.93
2022-08-20T06:07:18.511Z,19.97
2022-08-20T06:08:18.532Z,19.97
2022-08-20T06:09:28.597Z,19.97
2022-08-20T06:10:18.602Z,20.02
2022-08-20T06:11:18.593Z,20.03
2022-08-20T06:12:18.634Z,20.08
2022-08-20T06:13:18.715Z,20.14
2022-08-20T06:14:18.793Z,20.17
2022-08-20T06:15:18.784Z,20.18
2022-08-20T06:16:18.805Z,20.19
2022-08-20T06:17:18.891Z,20.12
2022-08-20T06:18:28.650Z,20.10
2022-08-20T06:19:26.155Z,20.10
2022-08-20T06:20:18.911Z,20.12
2022-08-20T06:21:18.956Z,20.14
2022-08-20T06:22:22.527Z,20.12
2022-08-20T06:23:18.978Z,20.12
2022-08-20T06:24:18.987Z,20.08
2022-08-20T06:25:19.019Z,20.10
2022-08-20T06:26:29.867Z,20.11
2022-08-20T06:27:19.041Z,20.11
2022-08-20T06:28:19.088Z,20.11
2022-08-20T06:29:19.141Z,20.11
2022-08-20T06:30:19.129Z,20.07
2022-08-20T06:31:19.220Z,20.04
2022-08-20T06:32:19.200Z,20.07
2022-08-20T06:33:19.202Z,20.08
2022-08-20T06:34:19.273Z,20.10
2022-08-20T06:35:20.106Z,20.11
2022-08-20T06:36:19.322Z,20.11
2022-08-20T06:37:19.373Z,20.17
2022-08-20T06:38:19.442Z,20.22
2022-08-20T06:39:19.506Z,20.27
2022-08-20T06:40:19.682Z,20.32
2022-08-20T06:41:19.593Z,20.34
2022-08-20T06:42:20.789Z,20.40
2022-08-20T06:43:19.654Z,20.50
2022-08-20T06:44:19.714Z,20.56
2022-08-20T06:45:19.787Z,20.55
2022-08-20T06:46:19.789Z,20.52
2022-08-20T06:47:19.775Z,20.56
2022-08-20T06:48:19.836Z,20.63
2022-08-20T06:49:19.837Z,20.68
2022-08-20T06:50:19.867Z,20.83
2022-08-20T06:51:19.936Z,20.80
2022-08-20T06:52:19.989Z,20.74
2022-08-20T06:53:19.998Z,20.73
2022-08-20T06:54:19.978Z,20.73
2022-08-20T06:55:20.019Z,20.71
2022-08-20T06:56:20.188Z,20.71
2022-08-20T06:57:20.102Z,20.67
2022-08-20T06:58:37.803Z,20.67
2022-08-20T06:59:20.081Z,20.67
2022-08-20T07:00:20.141Z,20.60
2022-08-20T07:01:20.209Z,20.63
2022-08-20T07:02:20.263Z,20.56
2022-08-20T07:03:20.259Z,20.56
2022-08-20T07:04:20.304Z,20.60
2022-08-20T07:05:20.365Z,20.71
2022-08-20T07:06:20.354Z,20.82
2022-08-20T07:07:20.404Z,20.90
2022-08-20T07:08:20.404Z,20.96
2022-08-20T07:09:20.413Z,20.88
2022-08-20T07:10:20.405Z,20.88
2022-08-20T07:11:24.920Z,20.83
2022-08-20T07:12:20.466Z,20.77
2022-08-20T07:13:20.536Z,20.73
2022-08-20T07:14:20.605Z,20.71
2022-08-20T07:15:20.578Z,20.75
2022-08-20T07:16:20.668Z,20.75
2022-08-20T07:17:22.622Z,20.67
2022-08-20T07:18:28.037Z,20.59
2022-08-20T07:19:20.653Z,20.55
2022-08-20T07:20:20.722Z,20.48
2022-08-20T07:21:20.691Z,20.49
2022-08-20T07:22:20.776Z,20.48
2022-08-20T07:23:20.770Z,20.49
2022-08-20T07:24:20.842Z,20.49
2022-08-20T07:25:20.881Z,20.53
2022-08-20T07:26:20.964Z,20.58
2022-08-20T07:27:20.953Z,20.59
2022-08-20T07:28:21.004Z,20.58
2022-08-20T07:29:21.659Z,20.59
2022-08-20T07:30:21.103Z,20.60
2022-08-20T07:31:21.099Z,20.63
2022-08-20T07:32:22.360Z,20.55
2022-08-20T07:33:21.204Z,20.55
2022-08-20T07:34:21.253Z,20.53
2022-08-20T07:35:21.255Z,20.53
2022-08-20T07:36:21.267Z,20.58
2022-08-20T07:37:21.326Z,20.60
2022-08-20T07:38:21.316Z,20.66
2022-08-20T07:39:21.293Z,20.74
2022-08-20T07:40:25.722Z,20.80
2022-08-20T07:41:21.357Z,20.89
2022-08-20T07:42:21.418Z,21.00
2022-08-20T07:43:21.483Z,21.01
2022-08-20T07:44:21.489Z,21.23
2022-08-20T07:45:21.495Z,21.75
2022-08-20T07:46:21.622Z,22.06
2022-08-20T07:47:21.551Z,22.22
2022-08-20T07:48:31.085Z,22.40
2022-08-20T07:49:21.591Z,23.18
2022-08-20T07:50:21.621Z,23.14
2022-08-20T07:51:21.639Z,23.10
2022-08-20T07:52:21.639Z,22.88
2022-08-20T07:53:21.662Z,22.59
2022-08-20T07:54:21.684Z,22.22
2022-08-20T07:55:21.729Z,21.99
2022-08-20T07:56:21.746Z,21.77
2022-08-20T07:57:21.753Z,21.62
2022-08-20T07:58:21.754Z,21.51
2022-08-20T07:59:21.808Z,21.44
2022-08-20T08:00:22.087Z,21.37
2022-08-20T08:01:21.996Z,21.32
2022-08-20T08:02:21.958Z,21.20
2022-08-20T08:03:22.056Z,21.15
2022-08-20T08:04:22.087Z,21.14
2022-08-20T08:05:22.087Z,21.13
2022-08-20T08:06:29.989Z,21.14
2022-08-20T08:07:22.119Z,21.14
2022-08-20T08:08:22.189Z,21.05
2022-08-20T08:09:22.249Z,21.08
2022-08-20T08:10:22.262Z,21.03
2022-08-20T08:11:22.328Z,21.03
2022-08-20T08:12:22.341Z,21.04
2022-08-20T08:13:22.412Z,21.15
2022-08-20T08:14:22.406Z,21.32
2022-08-20T08:15:22.382Z,21.43
2022-08-20T08:16:22.421Z,21.44
2022-08-20T08:17:22.410Z,21.44
2022-08-20T08:18:22.433Z,21.50
2022-08-20T08:19:22.530Z,21.56
2022-08-20T08:20:22.503Z,21.54
2022-08-20T08:21:22.516Z,21.45
2022-08-20T08:22:22.603Z,21.60
2022-08-20T08:23:24.854Z,21.68
2022-08-20T08:24:27.835Z,21.74
2022-08-20T08:25:22.686Z,21.74
2022-08-20T08:26:22.715Z,22.04
2022-08-20T08:27:22.796Z,22.15
2022-08-20T08:28:22.867Z,22.19
2022-08-20T08:29:22.898Z,22.21
2022-08-20T08:30:22.897Z,22.33
2022-08-20T08:31:22.961Z,22.92
2022-08-20T08:32:22.997Z,22.83
2022-08-20T08:33:23.100Z,23.29
2022-08-20T08:34:23.067Z,24.48
2022-08-20T08:35:23.110Z,24.93
2022-08-20T08:36:23.173Z,25.68
2022-08-20T08:37:23.232Z,25.11
2022-08-20T08:38:23.291Z,25.95
2022-08-20T08:39:23.349Z,26.55
2022-08-20T08:40:23.408Z,26.93
2022-08-20T08:41:23.362Z,26.79
2022-08-20T08:42:23.401Z,26.48
2022-08-20T08:43:23.444Z,26.34
2022-08-20T08:44:23.487Z,26.10
2022-08-20T08:45:23.548Z,26.08
2022-08-20T08:46:23.605Z,25.83
2022-08-20T08:47:23.605Z,25.34
2022-08-20T08:48:23.686Z,24.62
2022-08-20T08:49:23.742Z,23.94
2022-08-20T08:50:43.869Z,23.42
2022-08-20T08:51:23.768Z,23.33
2022-08-20T08:52:23.778Z,23.39
2022-08-20T08:53:23.769Z,23.66
2022-08-20T08:54:23.790Z,23.77
2022-08-20T08:55:23.829Z,23.81
2022-08-20T08:56:23.800Z,23.63
2022-08-20T08:57:23.794Z,23.32
2022-08-20T08:58:23.812Z,23.26
2022-08-20T08:59:23.852Z,23.32
2022-08-20T09:00:23.832Z,23.17
2022-08-20T09:01:53.861Z,23.11
2022-08-20T09:02:24.007Z,23.06
2022-08-20T09:03:24.044Z,23.02
2022-08-20T09:04:24.074Z,22.99
2022-08-20T09:05:24.134Z,23.06
2022-08-20T09:06:24.135Z,23.20
2022-08-20T09:07:24.145Z,23.40
2022-08-20T09:08:24.217Z,23.51
2022-08-20T09:09:24.286Z,23.64
2022-08-20T09:10:24.298Z,24.13
2022-08-20T09:11:24.257Z,25.59
2022-08-20T09:12:24.307Z,26.61
2022-08-20T09:13:24.357Z,27.52
2022-08-20T09:14:24.430Z,28.15
2022-08-20T09:15:24.449Z,27.58
2022-08-20T09:16:24.459Z,27.25
2022-08-20T09:17:24.490Z,26.44
2022-08-20T09:18:24.511Z,25.61
2022-08-20T09:19:24.553Z,24.97
2022-08-20T09:20:27.109Z,24.62
2022-08-20T09:21:24.632Z,24.14
2022-08-20T09:22:24.661Z,23.92
2022-08-20T09:23:24.683Z,24.03
2022-08-20T09:24:24.674Z,24.65
2022-08-20T09:25:24.769Z,24.71
2022-08-20T09:26:25.753Z,24.19
2022-08-20T09:27:24.854Z,24.03
2022-08-20T09:28:24.906Z,23.62
2022-08-20T09:29:24.915Z,23.52
2022-08-20T09:30:24.937Z,23.54
2022-08-20T09:31:24.960Z,23.49
2022-08-20T09:32:24.978Z,23.37
2022-08-20T09:33:24.968Z,23.25
2022-08-20T09:34:24.967Z,23.28
2022-08-20T09:35:25.018Z,23.44
2022-08-20T09:36:29.254Z,24.55
2022-08-20T09:37:25.118Z,25.63
2022-08-20T09:38:25.160Z,26.33
2022-08-20T09:39:25.200Z,26.64
2022-08-20T09:40:25.262Z,25.93
2022-08-20T09:41:25.212Z,25.52
2022-08-20T09:42:25.281Z,24.89
2022-08-20T09:43:25.302Z,24.77
2022-08-20T09:44:25.314Z,24.75
2022-08-20T09:45:25.325Z,24.77
2022-08-20T09:46:27.283Z,24.84
2022-08-20T09:47:25.372Z,24.88
2022-08-20T09:48:31.874Z,24.86
2022-08-20T09:49:25.394Z,24.71
2022-08-20T09:50:25.398Z,24.69
2022-08-20T09:51:25.409Z,24.78
2022-08-20T09:52:25.408Z,24.81
2022-08-20T09:53:25.488Z,24.66
2022-08-20T09:54:25.538Z,24.32
2022-08-20T09:55:25.538Z,24.32
2022-08-20T09:56:25.699Z,24.40
2022-08-20T09:57:25.668Z,24.47
2022-08-20T09:58:25.706Z,24.59
2022-08-20T09:59:25.719Z,24.48
2022-08-20T10:00:25.745Z,24.55
2022-08-20T10:01:25.766Z,24.81
2022-08-20T10:02:25.771Z,24.69
2022-08-20T10:03:25.781Z,24.51
2022-08-20T10:04:25.811Z,24.62
2022-08-20T10:05:25.822Z,25.04
2022-08-20T10:06:25.884Z,25.19
2022-08-20T10:07:25.955Z,25.37
2022-08-20T10:08:25.984Z,26.07
2022-08-20T10:09:26.004Z,26.37
2022-08-20T10:10:26.045Z,26.68
2022-08-20T10:11:26.064Z,26.98
2022-08-20T10:12:26.135Z,27.47
2022-08-20T10:13:26.126Z,27.73
2022-08-20T10:14:26.177Z,27.76
2022-08-20T10:15:26.229Z,27.61
2022-08-20T10:16:26.188Z,27.45
2022-08-20T10:17:26.229Z,26.91
2022-08-20T10:18:26.238Z,26.61
2022-08-20T10:19:26.292Z,26.18
2022-08-20T10:20:26.291Z,25.59
2022-08-20T10:21:26.304Z,25.22
2022-08-20T10:22:26.314Z,25.19
2022-08-20T10:23:26.302Z,25.01
2022-08-20T10:24:26.351Z,25.03
2022-08-20T10:25:26.363Z,25.14
2022-08-20T10:26:26.393Z,25.49
2022-08-20T10:27:26.423Z,25.98
2022-08-20T10:28:26.484Z,26.23
2022-08-20T10:29:26.554Z,26.71
2022-08-20T10:30:26.606Z,26.76
2022-08-20T10:31:26.604Z,26.42
2022-08-20T10:32:26.616Z,26.16
2022-08-20T10:33:26.656Z,26.33
2022-08-20T10:34:26.688Z,26.04
2022-08-20T10:35:26.717Z,25.91
2022-08-20T10:36:26.796Z,26.16
2022-08-20T10:37:27.681Z,25.85
2022-08-20T10:38:26.976Z,25.63
2022-08-20T10:39:26.941Z,26.29
2022-08-20T10:40:27.919Z,26.42
2022-08-20T10:41:27.001Z,26.03
2022-08-20T10:42:27.051Z,25.78
2022-08-20T10:43:27.109Z,25.85
2022-08-20T10:44:27.091Z,26.04
2022-08-20T10:45:27.091Z,26.11
2022-08-20T10:46:27.172Z,26.26
2022-08-20T10:47:27.214Z,26.01
2022-08-20T10:48:27.238Z,26.03
2022-08-20T10:49:27.233Z,26.15
2022-08-20T10:50:30.339Z,26.06
2022-08-20T10:51:32.149Z,26.08
2022-08-20T10:52:27.406Z,25.77
2022-08-20T10:53:27.455Z,25.29
2022-08-20T10:54:27.516Z,25.18
2022-08-20T10:55:27.547Z,25.29
2022-08-20T10:56:27.550Z,25.22
2022-08-20T10:57:27.558Z,25.30
2022-08-20T10:58:37.523Z,25.56
2022-08-20T10:59:27.570Z,25.78
2022-08-20T11:00:27.598Z,25.88
2022-08-20T11:01:31.583Z,25.95
2022-08-20T11:02:27.682Z,25.93
2022-08-20T11:03:27.611Z,25.88
2022-08-20T11:04:27.671Z,25.73
2022-08-20T11:05:27.669Z,25.26
2022-08-20T11:06:27.691Z,25.15
2022-08-20T11:07:55.791Z,25.37
2022-08-20T11:08:34.395Z,25.49
2022-08-20T11:09:27.788Z,25.24
2022-08-20T11:10:27.796Z,25.12
2022-08-20T11:11:27.836Z,25.40
2022-08-20T11:12:27.896Z,25.98
2022-08-20T11:13:27.905Z,26.41
2022-08-20T11:14:27.946Z,26.48
2022-08-20T11:15:27.974Z,26.67
2022-08-20T11:16:27.997Z,26.71
2022-08-20T11:17:28.007Z,26.52
2022-08-20T11:18:28.079Z,26.45
2022-08-20T11:19:28.118Z,25.86
2022-08-20T11:20:28.118Z,25.77
2022-08-20T11:21:28.159Z,25.63
2022-08-20T11:22:28.200Z,25.66
2022-08-20T11:23:28.219Z,25.58
2022-08-20T11:24:28.251Z,25.59
2022-08-20T11:25:28.261Z,25.59
2022-08-20T11:26:28.311Z,25.39
2022-08-20T11:27:28.393Z,25.18
2022-08-20T11:28:31.714Z,24.97
2022-08-20T11:29:33.412Z,24.69
2022-08-20T11:30:28.348Z,24.38
2022-08-20T11:31:28.363Z,24.06
2022-08-20T11:32:28.395Z,23.91
2022-08-20T11:33:28.437Z,23.86
2022-08-20T11:34:28.415Z,23.88
2022-08-20T11:35:49.498Z,23.86
2022-08-20T11:36:28.456Z,23.84
2022-08-20T11:37:28.445Z,23.89
2022-08-20T11:38:28.486Z,23.92
2022-08-20T11:39:28.487Z,24.03
2022-08-20T11:40:28.586Z,24.03
2022-08-20T11:41:28.548Z,24.09
2022-08-20T11:42:28.539Z,24.10
2022-08-20T11:43:28.538Z,24.09
2022-08-20T11:44:28.559Z,24.47
2022-08-20T11:45:28.578Z,24.96
2022-08-20T11:46:28.854Z,25.04
2022-08-20T11:47:28.661Z,25.03
2022-08-20T11:48:28.701Z,24.97
2022-08-20T11:49:28.714Z,24.84
2022-08-20T11:50:28.692Z,24.78
2022-08-20T11:51:28.716Z,24.81
2022-08-20T11:52:28.683Z,24.84
2022-08-20T11:53:28.743Z,24.69
2022-08-20T11:54:28.803Z,24.55
2022-08-20T11:55:30.295Z,24.24
2022-08-20T11:56:28.914Z,24.24
2022-08-20T11:57:28.956Z,24.25
2022-08-20T11:58:29.015Z,24.40
2022-08-20T11:59:29.007Z,24.29
2022-08-20T12:00:31.876Z,24.40
2022-08-20T12:01:29.009Z,24.44
2022-08-20T12:02:29.784Z,24.47
2022-08-20T12:03:29.038Z,24.50
2022-08-20T12:04:29.100Z,24.59
2022-08-20T12:05:29.151Z,25.01
2022-08-20T12:06:29.157Z,25.89
2022-08-20T12:07:29.202Z,26.27
2022-08-20T12:08:29.271Z,26.24
2022-08-20T12:09:29.311Z,26.51
2022-08-20T12:10:29.322Z,27.00
2022-08-20T12:11:29.322Z,27.41
2022-08-20T12:12:29.416Z,27.78
2022-08-20T12:13:47.272Z,28.10
2022-08-20T12:14:29.474Z,28.30
2022-08-20T12:15:29.484Z,27.90
2022-08-20T12:16:29.493Z,27.37
2022-08-20T12:17:29.561Z,27.11
2022-08-20T12:18:29.576Z,26.33
2022-08-20T12:19:29.627Z,26.22
2022-08-20T12:20:29.619Z,26.27
2022-08-20T12:21:32.342Z,26.34
2022-08-20T12:22:29.710Z,25.89
2022-08-20T12:23:29.716Z,26.16
2022-08-20T12:24:29.781Z,26.18
2022-08-20T12:25:29.848Z,26.66
2022-08-20T12:26:29.900Z,26.42
2022-08-20T12:27:29.905Z,26.37
2022-08-20T12:28:29.889Z,26.22
2022-08-20T12:29:29.940Z,25.61
2022-08-20T12:30:29.971Z,25.71
2022-08-20T12:31:30.052Z,26.31
2022-08-20T12:32:30.072Z,26.44
2022-08-20T12:33:30.071Z,26.48
2022-08-20T12:34:30.113Z,26.46
2022-08-20T12:35:31.087Z,26.08
2022-08-20T12:36:30.193Z,25.67
2022-08-20T12:37:30.244Z,25.62
2022-08-20T12:38:30.226Z,25.67
2022-08-20T12:39:30.256Z,25.76
2022-08-20T12:40:32.784Z,26.27
2022-08-20T12:41:30.305Z,26.37
2022-08-20T12:42:30.345Z,26.39
2022-08-20T12:43:30.379Z,26.08
2022-08-20T12:44:30.368Z,26.36
2022-08-20T12:45:30.374Z,26.81
2022-08-20T12:46:30.419Z,26.82
2022-08-20T12:47:30.448Z,27.47
2022-08-20T12:48:30.440Z,28.22
2022-08-20T12:49:30.489Z,28.38
2022-08-20T12:50:31.855Z,28.43
2022-08-20T12:51:30.639Z,28.28
2022-08-20T12:52:30.642Z,28.19
2022-08-20T12:53:30.613Z,28.31
2022-08-20T12:54:30.624Z,28.67